Asan, Guam
Current Conditions -  °F | °C
As of 10:54 AM on Tuesday 23 Dec 2014 (Local Time) from PGUM Reporting Station
Broken Clouds Broken Clouds  
Wind Chill: 89°   Ceiling: 3400
Heat Index: 102°   Visibility: 10mi
Dew Point: 77°   Wind: 18mph
Humidity: 67%   Direction: 50°NE
Pressure: 29.92"   Gusts: 24mph
Location:  13.47°N, 144.71°E
Report Text: PGUM 230054Z 05016G21KT 10SM SCT021 SCT026 BKN034 32/25 A2992 RMK AO2 PK WND 05026/0041 SLP125 T03170250
Loading
Personal Weather Stations






























Interactive Weather Map New forecast layout! Learn more

10-Day Weather Forecast

Advertisements
Track Severe Weather on mobile